This is the latest recevied weather packets stored in our database for station/object K1KOF. If no packets are shown the sender has not sent any weather packets the latest 1 day(s).
| Time | Temp. | Humidity | Pressure | Rain* | Wind** | Luminosity | Snow |
|---|---|---|---|---|---|---|---|
| 1777998267 | 25.56° C | 50% | 1027.3 hPa | 0 mm | 0.89 m/s, 135° | 179 W/m² | - |
| 1777997964 | 25° C | 49% | 1027.4 hPa | 0 mm | 1.79 m/s, 147° | 142 W/m² | - |
| 1777997661 | 25° C | 50% | 1027.5 hPa | 0 mm | 1.34 m/s, 212° | 542 W/m² | - |
| 1777997358 | 24.44° C | 55% | 1027.3 hPa | 0 mm | 0 m/s | 376 W/m² | - |
| 1777997056 | 24.44° C | 53% | 1027.5 hPa | 0 mm | 2.68 m/s, 194° | 604 W/m² | - |
| 1777996752 | 24.44° C | 51% | 1027.3 hPa | 0 mm | 2.24 m/s, 191° | 648 W/m² | - |
| 1777996449 | 24.44° C | 55% | 1027.2 hPa | 0 mm | 0.89 m/s, 139° | 750 W/m² | - |
| 1777996146 | 24.44° C | 58% | 1027.4 hPa | 0 mm | 1.34 m/s, 180° | 714 W/m² | - |
| 1777995842 | 24.44° C | 62% | 1027.5 hPa | 0 mm | 1.34 m/s, 217° | 721 W/m² | - |
| 1777995538 | 24.44° C | 61% | 1027.8 hPa | 0 mm | 0.89 m/s, 180° | 617 W/m² | - |
| 1777995235 | 23.89° C | 60% | 1027.5 hPa | 0 mm | 2.24 m/s, 234° | 581 W/m² | - |
| 1777994933 | 23.89° C | 61% | 1027.9 hPa | 0 mm | 0.89 m/s, 239° | 543 W/m² | - |
| 1777994630 | 23.89° C | 64% | 1027.7 hPa | 0 mm | 0.89 m/s, 150° | 658 W/m² | - |
| 1777994329 | 23.33° C | 67% | 1027.8 hPa | 0 mm | 1.34 m/s, 152° | 607 W/m² | - |
| 1777994026 | 23.33° C | 66% | 1027.7 hPa | 0 mm | 2.24 m/s, 189° | 659 W/m² | - |
| 1777993723 | 22.78° C | 68% | 1027.8 hPa | 0 mm | 1.34 m/s, 170° | 643 W/m² | - |
| 1777993421 | 22.78° C | 68% | 1027.8 hPa | 0 mm | 1.79 m/s, 135° | 701 W/m² | - |
| 1777993115 | 23.33° C | 69% | 1027.9 hPa | 0 mm | 1.34 m/s, 140° | 629 W/m² | - |
| 1777992813 | 22.22° C | 71% | 1027.5 hPa | 0 mm | 1.34 m/s, 213° | 592 W/m² | - |
| 1777992510 | 21.67° C | 70% | 1027.8 hPa | 0 mm | 3.58 m/s, 224° | 486 W/m² | - |
| 1777992209 | 22.22° C | 70% | 1027.5 hPa | 0 mm | 0.89 m/s, 247° | 676 W/m² | - |
| 1777991905 | 21.67° C | 71% | 1027.3 hPa | 0 mm | 2.24 m/s, 185° | 573 W/m² | - |
| 1777991603 | 21.67° C | 72% | 1027.5 hPa | 0 mm | 2.24 m/s, 250° | 561 W/m² | - |
| 1777991300 | 21.67° C | 71% | 1027.7 hPa | 0 mm | 0.45 m/s, 270° | 646 W/m² | - |
| 1777990997 | 21.11° C | 74% | 1027.4 hPa | 0 mm | 0 m/s | 684 W/m² | - |
* Rain latest hour (hover to see other rain measurements)
** Current wind speed in m/s (hover to see current wind gust speed)